Westford, MA (01886)

1:03 PM EST on February 09, 2016 (GMT -0500)
Boston Road | | Change Station
CLOSE
Current Station
Personal Weather Station
Location: Westford, MA
Elevation: 344 ft
Nearby Weather Stations

Elev 344 ft 42.57 °N, 71.44 °W | Updated 8 seconds ago

Overcast
Overcast
26.6 °F
Feels Like 27 °F
N
0.0
Wind Variable Wind from NNE
Gusts 0.0 mph

Today
High -- | Low -- °F
--% Chance of Precip.
Yesterday
High -- | Low -- °F
Precip. -- in
Pressure 29.63 in
Visibility 10.0 miles
Clouds Overcast 2500 ft
Windchill 27 °F
Dew Point 10 °F
Humidity 50%
Rainfall 0.00 in
Snow Depth Not available.
6:51 AM 5:09 PM
New Moon, 2% visible
METAR KFIT 091752Z AUTO 09004KT 10SM OVC025 M03/M09 A2961 RMK AO2 SLP032 60000 T10331089 11033 21111 56035
Pressure 29.63 in
Visibility 10.0 miles
Clouds Overcast 2500 ft
Windchill 27 °F
Dew Point 10 °F
Humidity 50%
Rainfall 0.00 in
Snow Depth Not available.
6:51 AM 5:09 PM
New Moon, 2% visible
METAR KFIT 091752Z AUTO 09004KT 10SM OVC025 M03/M09 A2961 RMK AO2 SLP032 60000 T10331089 11033 21111 56035

10-Day Weather Forecast

Almanac

Astronomy

Feb. 09, 2016 Rise Set
Actual Time
Civil Twilight
Nautical Twilight
Astronomical Twilight
Moon
Length of Visible Light
Length of Day
Tomorrow will be .
, % of the Moon is Illuminated

Today's Extremes

State Highs State Lows

Community

WunderPhotos

Upload Photos

1,891,650 photos uploaded!

WunderBlog® & News

Nearby

Air Quality

  Air Quality AQ Index Pollutant
Not available.

Snow Depth

Station Depth Elevation

Earthquake Activity

City Distance Mag. Time & Date
Minimum magnitude displayed is 2.5.

Coastal Water Temperatures

Place Temperature

Stations

Nearby Weather Stations

Station Location Temp. Windchill Dew Point Humidity Wind Precip. Elev Updated Type
                   

Watches & Warnings

There are currently no watches in effect.